Terminal Aerodrome Forecast
Issued by NWS

Home | Current Version | Previous Version | Text Only | Print | Product List | Glossary On
Versions: 1 2 3 4 5 6 7 8 9 10 11 12 13 14 15 16 17 18 19 20 21 22 23 24 25
000
FTUS43 KEAX 172300
TAFSTJ
TAF
KSTJ 172332Z 1800/1824 00000KT P6SM FEW030
     FM180500 00000KT 4SM BR SCT250
     FM180700 09002KT 2SM BR OVC006
     FM181000 09002KT 1/4SM FG OVC001
     FM181400 09003KT 3SM BR OVC006
      TEMPO 1814/1815 1SM BR OVC002
     FM181800 12008KT P6SM SCT020=

USA.gov is the U.S. government's official web portal to all federal, state and local government web resources and services.